createdAt,value
2019-04-06T00:00:30.354Z,53.30
2019-04-06T00:02:59.685Z,53.07
2019-04-06T00:05:29.073Z,53.70
2019-04-06T00:07:58.417Z,53.27
2019-04-06T00:10:28.079Z,52.07
2019-04-06T00:12:57.422Z,51.40
2019-04-06T00:15:26.817Z,52.47
2019-04-06T00:17:56.455Z,52.63
2019-04-06T00:20:25.755Z,52.77
2019-04-06T00:22:55.498Z,51.37
2019-04-06T00:25:24.884Z,50.43
2019-04-06T00:27:54.337Z,52.80
2019-04-06T00:30:24.082Z,54.17
2019-04-06T00:33:05.809Z,52.60
2019-04-06T00:35:35.111Z,52.37
2019-04-06T00:38:04.551Z,51.37
2019-04-06T00:40:33.876Z,51.13
2019-04-06T00:43:03.905Z,52.50
2019-04-06T00:45:33.617Z,53.00
2019-04-06T00:48:03.299Z,51.47
2019-04-06T00:50:32.617Z,53.07
2019-04-06T00:53:02.235Z,52.03
2019-04-06T00:55:31.641Z,52.30
2019-04-06T00:58:01.015Z,52.53
2019-04-06T01:00:30.444Z,54.80
2019-04-06T01:02:59.835Z,54.43
2019-04-06T01:05:29.151Z,53.40
2019-04-06T01:07:58.475Z,55.47
2019-04-06T01:10:27.887Z,56.73
2019-04-06T01:12:57.563Z,54.73
2019-04-06T01:15:26.991Z,54.70
2019-04-06T01:17:56.335Z,56.87
2019-04-06T01:20:25.670Z,57.53
2019-04-06T01:22:55.003Z,57.40
2019-04-06T01:25:24.368Z,58.33
2019-04-06T01:27:53.695Z,56.10
2019-04-06T01:30:23.056Z,57.27
2019-04-06T01:32:52.698Z,55.40
2019-04-06T01:35:22.098Z,58.07
2019-04-06T01:37:51.811Z,55.77
2019-04-06T01:40:21.145Z,55.80
2019-04-06T01:42:50.452Z,55.80
2019-04-06T01:45:19.763Z,57.10
2019-04-06T01:47:49.077Z,58.40
2019-04-06T01:50:19.083Z,56.53
2019-04-06T01:52:48.401Z,59.13
2019-04-06T01:55:18.091Z,58.53
2019-04-06T01:57:47.695Z,56.97
2019-04-06T02:00:17.507Z,57.33
2019-04-06T02:02:49.507Z,57.53
2019-04-06T02:05:18.841Z,58.63
2019-04-06T02:07:49.470Z,55.80
2019-04-06T02:10:19.008Z,57.07
2019-04-06T02:12:48.327Z,57.03
2019-04-06T02:15:18.018Z,55.70
2019-04-06T02:17:47.584Z,54.93
2019-04-06T02:20:17.379Z,55.93
2019-04-06T02:22:46.691Z,55.10
2019-04-06T02:25:16.395Z,56.97
2019-04-06T02:27:46.537Z,55.03
2019-04-06T02:30:33.565Z,57.20
2019-04-06T02:33:20.684Z,57.10
2019-04-06T02:36:12.005Z,57.37
2019-04-06T02:38:59.020Z,57.00
2019-04-06T02:41:46.514Z,55.50
2019-04-06T02:44:15.853Z,56.20
2019-04-06T02:46:45.169Z,56.37
2019-04-06T02:49:14.751Z,56.50
2019-04-06T02:51:44.547Z,56.60
2019-04-06T02:54:14.241Z,57.13
2019-04-06T02:56:46.199Z,56.67
2019-04-06T02:59:14.797Z,58.43
2019-04-06T03:01:44.484Z,57.87
2019-04-06T03:04:13.809Z,59.80
2019-04-06T03:06:43.463Z,58.67
2019-04-06T03:09:13.019Z,57.00
2019-04-06T03:11:42.960Z,56.87
2019-04-06T03:14:12.832Z,58.20
2019-04-06T03:16:42.717Z,57.73
2019-04-06T03:19:12.472Z,55.53
2019-04-06T03:21:42.425Z,58.53
2019-04-06T03:24:12.104Z,57.10
2019-04-06T03:26:41.397Z,55.80
2019-04-06T03:29:11.115Z,55.87
2019-04-06T03:31:40.689Z,55.37
2019-04-06T03:34:09.993Z,55.33
2019-04-06T03:36:39.329Z,56.00
2019-04-06T03:39:08.624Z,54.93
2019-04-06T03:41:38.455Z,56.93
2019-04-06T03:44:07.801Z,55.40
2019-04-06T03:46:37.178Z,56.37
2019-04-06T03:49:06.830Z,56.07
2019-04-06T03:51:36.306Z,55.20
2019-04-06T03:54:05.642Z,53.90
2019-04-06T03:56:35.166Z,54.80
2019-04-06T03:59:05.716Z,55.77
2019-04-06T04:01:34.859Z,56.10
2019-04-06T04:04:04.411Z,54.60
2019-04-06T04:06:33.663Z,55.70
2019-04-06T04:09:04.215Z,56.07
2019-04-06T04:11:33.902Z,55.93
2019-04-06T04:14:03.131Z,56.77
2019-04-06T04:16:32.628Z,55.40
2019-04-06T04:19:02.382Z,53.33
2019-04-06T04:21:31.934Z,55.13
2019-04-06T04:24:01.247Z,53.97
2019-04-06T04:26:30.407Z,54.07
2019-04-06T04:28:59.975Z,55.30
2019-04-06T04:31:29.404Z,54.63
2019-04-06T04:33:58.686Z,53.90
2019-04-06T04:36:27.932Z,55.83
2019-04-06T04:38:57.083Z,54.87
2019-04-06T04:41:26.545Z,52.63
2019-04-06T04:43:55.778Z,54.20
2019-04-06T04:46:25.189Z,53.93
2019-04-06T04:48:54.462Z,52.40
2019-04-06T04:51:23.613Z,55.10
2019-04-06T04:53:53.217Z,52.47
2019-04-06T04:56:22.751Z,51.67
2019-04-06T04:58:52.101Z,50.37
2019-04-06T05:01:21.371Z,51.97
2019-04-06T05:03:50.547Z,53.27
2019-04-06T05:06:19.714Z,52.47
2019-04-06T05:08:48.884Z,51.87
2019-04-06T05:11:18.538Z,51.40
2019-04-06T05:13:47.886Z,52.70
2019-04-06T05:16:17.066Z,52.23
2019-04-06T05:18:46.807Z,52.27
2019-04-06T05:21:15.959Z,53.07
2019-04-06T05:23:45.472Z,51.63
2019-04-06T05:26:14.755Z,52.63
2019-04-06T05:28:44.134Z,54.37
2019-04-06T05:31:13.412Z,51.30
2019-04-06T05:33:42.570Z,51.50
2019-04-06T05:36:11.743Z,53.63
2019-04-06T05:38:40.939Z,52.67
2019-04-06T05:41:10.435Z,53.87
2019-04-06T05:43:39.727Z,53.13
2019-04-06T05:46:09.201Z,52.87
2019-04-06T05:48:38.683Z,52.77
2019-04-06T05:51:08.062Z,50.90
2019-04-06T05:53:37.316Z,51.23
2019-04-06T05:56:06.766Z,50.53
2019-04-06T05:58:40.292Z,53.57
2019-04-06T06:01:10.238Z,51.43
2019-04-06T06:03:41.102Z,50.60
2019-04-06T06:06:12.344Z,52.10
2019-04-06T06:08:40.792Z,51.60
2019-04-06T06:11:10.038Z,51.07
2019-04-06T06:13:39.828Z,51.03
2019-04-06T06:16:11.438Z,51.23
2019-04-06T06:18:40.251Z,49.67
2019-04-06T06:21:09.500Z,51.23
2019-04-06T06:23:38.809Z,50.80
2019-04-06T06:26:08.102Z,50.77
2019-04-06T06:28:41.708Z,49.03
2019-04-06T06:31:11.379Z,49.13
2019-04-06T06:33:41.006Z,50.83
2019-04-06T06:36:10.401Z,51.70
2019-04-06T06:38:39.759Z,52.23
2019-04-06T06:41:09.939Z,50.80
2019-04-06T06:43:39.163Z,51.43
2019-04-06T06:46:08.864Z,46.67
2019-04-06T06:48:38.199Z,49.70
2019-04-06T06:51:07.815Z,49.93
2019-04-06T06:53:37.101Z,51.27
2019-04-06T06:56:07.397Z,49.47
2019-04-06T06:58:37.028Z,49.80
2019-04-06T07:01:06.241Z,50.60
2019-04-06T07:03:35.559Z,49.70
2019-04-06T07:06:04.838Z,49.40
2019-04-06T07:08:34.129Z,50.30
2019-04-06T07:11:03.445Z,49.77
2019-04-06T07:13:33.099Z,49.97
2019-04-06T07:16:02.412Z,48.73
2019-04-06T07:18:32.056Z,49.03
2019-04-06T07:21:01.694Z,50.47
2019-04-06T07:23:30.973Z,49.10
2019-04-06T07:26:00.465Z,47.97
2019-04-06T07:28:37.468Z,48.83
2019-04-06T07:31:01.161Z,51.03
2019-04-06T07:33:30.453Z,48.63
2019-04-06T07:35:59.738Z,48.57
2019-04-06T07:38:29.618Z,48.90
2019-04-06T07:40:59.233Z,48.83
2019-04-06T07:43:28.511Z,48.97
2019-04-06T07:45:57.916Z,49.33
2019-04-06T07:48:27.553Z,49.03
2019-04-06T07:50:57.198Z,47.97
2019-04-06T07:53:26.463Z,46.27
2019-04-06T07:55:55.701Z,47.07
2019-04-06T07:58:24.902Z,50.10
2019-04-06T08:00:54.191Z,47.47
2019-04-06T08:03:23.769Z,46.23
2019-04-06T08:05:53.189Z,45.30
2019-04-06T08:08:22.881Z,45.73
2019-04-06T08:10:52.602Z,44.87
2019-04-06T08:13:21.867Z,47.00
2019-04-06T08:15:51.102Z,44.37
2019-04-06T08:18:20.397Z,45.17
2019-04-06T08:20:49.704Z,43.77
2019-04-06T08:23:19.355Z,44.73
2019-04-06T08:25:48.575Z,44.40
2019-04-06T08:28:17.773Z,43.60
2019-04-06T08:30:47.193Z,45.13
2019-04-06T08:33:16.821Z,44.70
2019-04-06T08:35:46.221Z,42.63
2019-04-06T08:38:15.892Z,44.60
2019-04-06T08:40:45.762Z,44.13
2019-04-06T08:43:14.968Z,42.50
2019-04-06T08:45:44.164Z,44.40
2019-04-06T08:48:13.426Z,41.87
2019-04-06T08:50:43.432Z,43.37
2019-04-06T08:53:13.046Z,42.87
2019-04-06T08:55:42.412Z,43.10
2019-04-06T08:58:11.705Z,42.50
2019-04-06T09:00:41.037Z,43.07
2019-04-06T09:03:10.596Z,41.40
2019-04-06T09:05:40.295Z,42.13
2019-04-06T09:08:09.613Z,41.33
2019-04-06T09:10:38.880Z,41.77
2019-04-06T09:13:08.033Z,41.13
2019-04-06T09:15:37.307Z,40.80
2019-04-06T09:18:06.803Z,41.10
2019-04-06T09:20:36.593Z,40.17
2019-04-06T09:23:05.823Z,40.67
2019-04-06T09:25:35.017Z,41.27
2019-04-06T09:28:04.368Z,42.43
2019-04-06T09:30:33.784Z,41.47
2019-04-06T09:33:03.075Z,40.33
2019-04-06T09:35:32.746Z,41.00
2019-04-06T09:38:02.007Z,40.13
2019-04-06T09:40:31.653Z,38.97
2019-04-06T09:43:01.139Z,37.63
2019-04-06T09:45:47.285Z,36.83
2019-04-06T09:48:32.698Z,34.37
2019-04-06T09:51:19.795Z,36.10
2019-04-06T09:54:07.606Z,37.33
2019-04-06T09:56:55.187Z,37.90
2019-04-06T09:59:49.710Z,38.30
2019-04-06T10:02:31.692Z,37.47
2019-04-06T10:05:29.024Z,38.80
2019-04-06T10:08:26.754Z,37.67
2019-04-06T10:11:24.817Z,36.67
2019-04-06T10:14:01.365Z,34.40
2019-04-06T10:16:41.476Z,35.37
2019-04-06T10:19:28.876Z,34.53
2019-04-06T10:22:23.303Z,35.30
2019-04-06T10:25:02.237Z,36.50
2019-04-06T10:27:50.623Z,36.13
2019-04-06T10:30:45.172Z,36.03
2019-04-06T10:33:45.514Z,37.40
2019-04-06T10:36:20.493Z,36.33
2019-04-06T10:39:20.689Z,36.53
2019-04-06T10:42:11.612Z,36.23
2019-04-06T10:45:05.900Z,35.77
2019-04-06T10:47:52.821Z,36.67
2019-04-06T10:50:47.237Z,35.43
2019-04-06T10:53:38.531Z,36.67
2019-04-06T10:56:29.862Z,35.87
2019-04-06T10:59:16.678Z,33.13
2019-04-06T11:02:07.149Z,34.33
2019-04-06T11:05:04.383Z,33.17
2019-04-06T11:07:40.320Z,33.73
2019-04-06T11:10:32.304Z,33.93
2019-04-06T11:13:26.489Z,34.30
2019-04-06T11:16:18.273Z,33.20
2019-04-06T11:19:12.868Z,31.83
2019-04-06T11:22:10.453Z,32.93
2019-04-06T11:25:02.297Z,30.97
2019-04-06T11:27:39.040Z,32.13
2019-04-06T11:30:26.763Z,31.77
2019-04-06T11:33:14.301Z,31.63
2019-04-06T11:36:01.235Z,31.80
2019-04-06T11:38:58.711Z,31.27
2019-04-06T11:41:55.363Z,31.00
2019-04-06T11:44:43.837Z,31.63
2019-04-06T11:47:21.994Z,30.13
2019-04-06T11:49:59.325Z,31.40
2019-04-06T11:52:44.331Z,30.77
2019-04-06T11:55:36.305Z,29.97
2019-04-06T11:58:30.682Z,30.67
2019-04-06T12:01:21.713Z,29.27
2019-04-06T12:04:06.995Z,28.43
2019-04-06T12:07:01.926Z,28.17
2019-04-06T12:09:37.612Z,28.80
2019-04-06T12:12:28.647Z,29.80
2019-04-06T12:15:03.282Z,29.87
2019-04-06T12:18:03.485Z,28.07
2019-04-06T12:20:50.721Z,27.70
2019-04-06T12:23:47.782Z,26.00
2019-04-06T12:26:25.320Z,26.80
2019-04-06T12:29:12.707Z,28.20
2019-04-06T12:32:03.705Z,27.87
2019-04-06T12:34:55.301Z,27.37
2019-04-06T12:37:38.795Z,27.30
2019-04-06T12:40:18.613Z,29.50
2019-04-06T12:43:07.108Z,27.50
2019-04-06T12:45:52.393Z,28.67
2019-04-06T12:48:39.598Z,27.43
2019-04-06T12:51:33.935Z,28.17
2019-04-06T12:54:21.280Z,26.60
2019-04-06T12:57:08.862Z,25.40
2019-04-06T12:59:59.929Z,25.90
2019-04-06T13:02:47.229Z,28.17
2019-04-06T13:05:44.790Z,28.10
2019-04-06T13:08:35.731Z,27.70
2019-04-06T13:11:20.912Z,25.13
2019-04-06T13:14:02.589Z,25.17
2019-04-06T13:16:36.673Z,25.60
2019-04-06T13:19:37.274Z,25.57
2019-04-06T13:22:18.407Z,24.90
2019-04-06T13:25:12.452Z,25.57
2019-04-06T13:28:00.957Z,25.77
2019-04-06T13:31:00.945Z,24.50
2019-04-06T13:33:26.461Z,25.37
2019-04-06T13:36:10.091Z,26.07
2019-04-06T13:39:07.947Z,26.47
2019-04-06T13:42:09.283Z,25.97
2019-04-06T13:44:47.477Z,26.40
2019-04-06T13:47:45.027Z,25.20
2019-04-06T13:50:26.673Z,25.33
2019-04-06T13:53:09.261Z,24.93
2019-04-06T13:56:15.659Z,23.80
2019-04-06T13:58:51.020Z,24.07
2019-04-06T14:01:42.113Z,25.33
2019-04-06T14:04:19.355Z,24.13
2019-04-06T14:07:13.797Z,23.70
2019-04-06T14:10:05.410Z,22.90
2019-04-06T14:12:52.550Z,22.70
2019-04-06T14:15:56.113Z,22.50
2019-04-06T14:18:53.500Z,21.77
2019-04-06T14:21:30.655Z,22.13
2019-04-06T14:24:18.912Z,21.37
2019-04-06T14:27:25.891Z,23.27
2019-04-06T14:30:20.284Z,22.47
2019-04-06T14:33:07.376Z,22.37
2019-04-06T14:36:02.089Z,20.23
2019-04-06T14:38:56.680Z,20.90
2019-04-06T14:41:57.636Z,19.97
2019-04-06T14:44:36.117Z,22.20
2019-04-06T14:47:30.494Z,20.90
2019-04-06T14:50:12.028Z,20.27
2019-04-06T14:53:19.228Z,22.33
2019-04-06T14:56:16.782Z,21.17
2019-04-06T14:58:56.124Z,19.87
2019-04-06T15:01:45.278Z,18.73
2019-04-06T15:04:34.401Z,18.13
2019-04-06T15:07:25.472Z,19.03
2019-04-06T15:10:04.417Z,18.67
2019-04-06T15:13:01.927Z,17.23
2019-04-06T15:15:56.899Z,17.73
2019-04-06T15:18:44.134Z,18.67
2019-04-06T15:21:31.203Z,17.13
2019-04-06T15:24:22.223Z,17.07
2019-04-06T15:27:09.255Z,17.90
2019-04-06T15:29:45.286Z,15.57
2019-04-06T15:32:37.201Z,15.10
2019-04-06T15:35:19.614Z,15.50
2019-04-06T15:38:08.229Z,16.87
2019-04-06T15:41:02.853Z,15.07
2019-04-06T15:44:06.302Z,16.57
2019-04-06T15:46:52.069Z,17.13
2019-04-06T15:49:40.425Z,15.87
2019-04-06T15:52:27.678Z,17.50
2019-04-06T15:55:22.517Z,17.40
2019-04-06T15:58:07.645Z,15.63
2019-04-06T16:00:43.789Z,16.03
2019-04-06T16:03:30.720Z,16.40
2019-04-06T16:06:37.340Z,16.23
2019-04-06T16:09:26.446Z,14.97
2019-04-06T16:12:05.772Z,15.17
2019-04-06T16:15:39.635Z,14.70
2019-04-06T16:18:30.687Z,15.10
2019-04-06T16:21:24.823Z,15.63
2019-04-06T16:24:19.526Z,15.87
2019-04-06T16:27:09.623Z,15.17
2019-04-06T16:29:45.772Z,15.03
2019-04-06T16:32:33.288Z,14.73
2019-04-06T16:35:24.088Z,15.33
2019-04-06T16:38:12.316Z,14.70
2019-04-06T16:41:06.377Z,14.60
2019-04-06T16:44:09.226Z,14.87
2019-04-06T16:47:00.209Z,14.37
2019-04-06T16:49:45.460Z,15.23
2019-04-06T16:52:30.048Z,15.03
2019-04-06T16:55:24.134Z,15.87
2019-04-06T16:58:12.393Z,15.00
2019-04-06T17:01:06.674Z,16.37
2019-04-06T17:03:44.231Z,15.77
2019-04-06T17:06:47.625Z,16.50
2019-04-06T17:09:41.601Z,17.07
2019-04-06T17:12:28.420Z,16.67
2019-04-06T17:15:05.199Z,16.67
2019-04-06T17:17:59.878Z,16.57
2019-04-06T17:20:47.094Z,16.20
2019-04-06T17:23:54.146Z,16.10
2019-04-06T17:26:45.001Z,16.43
2019-04-06T17:29:36.037Z,16.03
2019-04-06T17:32:19.455Z,16.03
2019-04-06T17:35:07.679Z,15.63
2019-04-06T17:37:43.476Z,16.93
2019-04-06T17:40:37.929Z,17.00
2019-04-06T17:43:35.170Z,17.03
2019-04-06T17:46:22.295Z,20.10
2019-04-06T17:49:19.763Z,17.80
2019-04-06T17:52:04.315Z,17.17
2019-04-06T17:54:55.758Z,17.77
2019-04-06T17:57:49.275Z,18.57
2019-04-06T18:00:43.537Z,21.50
2019-04-06T18:03:35.588Z,22.87
2019-04-06T18:06:26.898Z,25.17
2019-04-06T18:09:33.266Z,27.50
2019-04-06T18:12:24.339Z,28.00
2019-04-06T18:14:54.150Z,29.07
2019-04-06T18:17:23.593Z,28.23
2019-04-06T18:19:53.016Z,30.47
2019-04-06T18:22:22.290Z,31.23
2019-04-06T18:24:52.152Z,32.17
2019-04-06T18:27:21.905Z,33.37
2019-04-06T18:29:51.543Z,34.23
2019-04-06T18:32:39.544Z,32.63
2019-04-06T18:35:10.739Z,30.87
2019-04-06T18:37:52.634Z,32.47
2019-04-06T18:40:27.101Z,32.83
2019-04-06T18:42:56.834Z,32.80
2019-04-06T18:45:27.707Z,31.70
2019-04-06T18:47:57.247Z,33.53
2019-04-06T18:50:34.247Z,33.70
2019-04-06T18:52:57.775Z,33.67
2019-04-06T18:55:27.117Z,32.83
2019-04-06T18:58:07.906Z,35.17
2019-04-06T19:00:27.564Z,35.43
2019-04-06T19:02:57.151Z,38.30
2019-04-06T19:05:27.798Z,37.90
2019-04-06T19:07:57.619Z,36.53
2019-04-06T19:10:27.164Z,39.43
2019-04-06T19:12:56.544Z,40.43
2019-04-06T19:15:25.806Z,38.63
2019-04-06T19:17:55.045Z,39.63
2019-04-06T19:20:25.012Z,38.93
2019-04-06T19:22:54.601Z,38.77
2019-04-06T19:25:23.916Z,41.20
2019-04-06T19:27:53.577Z,38.50
2019-04-06T19:30:23.672Z,38.13
2019-04-06T19:32:52.969Z,40.10
2019-04-06T19:35:22.399Z,40.13
2019-04-06T19:37:51.973Z,39.17
2019-04-06T19:40:21.393Z,40.10
2019-04-06T19:42:51.182Z,43.50
2019-04-06T19:45:20.459Z,40.57
2019-04-06T19:47:49.616Z,39.73
2019-04-06T19:50:19.274Z,40.27
2019-04-06T19:52:48.893Z,40.00
2019-04-06T19:55:18.589Z,42.07
2019-04-06T19:57:48.460Z,38.70
2019-04-06T20:00:18.327Z,40.53
2019-04-06T20:02:48.256Z,42.23
2019-04-06T20:05:17.580Z,47.43
2019-04-06T20:07:46.735Z,44.33
2019-04-06T20:10:16.690Z,42.03
2019-04-06T20:12:46.333Z,40.97
2019-04-06T20:15:15.780Z,42.23
2019-04-06T20:17:45.234Z,40.63
2019-04-06T20:20:15.820Z,41.77
2019-04-06T20:22:45.112Z,40.47
2019-04-06T20:25:14.261Z,38.47
2019-04-06T20:27:44.712Z,38.73
2019-04-06T20:30:14.325Z,40.03
2019-04-06T20:32:44.685Z,39.60
2019-04-06T20:35:14.575Z,38.83
2019-04-06T20:37:44.293Z,38.87
2019-04-06T20:40:14.237Z,39.47
2019-04-06T20:42:43.917Z,40.40
2019-04-06T20:45:13.558Z,41.60
2019-04-06T20:47:43.163Z,41.10
2019-04-06T20:50:12.373Z,38.63
2019-04-06T20:52:42.350Z,38.90
2019-04-06T20:55:12.838Z,39.57
2019-04-06T20:57:42.634Z,40.37
2019-04-06T21:00:12.553Z,41.00
2019-04-06T21:02:41.743Z,40.97
2019-04-06T21:05:11.382Z,42.17
2019-04-06T21:07:41.958Z,39.80
2019-04-06T21:10:12.033Z,39.57
2019-04-06T21:12:42.139Z,38.23
2019-04-06T21:15:18.910Z,39.73
2019-04-06T21:17:42.766Z,39.33
2019-04-06T21:20:11.936Z,40.53
2019-04-06T21:22:41.141Z,38.10
2019-04-06T21:25:11.219Z,38.93
2019-04-06T21:27:43.168Z,39.20
2019-04-06T21:30:12.517Z,40.17
2019-04-06T21:32:41.713Z,41.53
2019-04-06T21:35:11.346Z,38.53
2019-04-06T21:37:41.196Z,38.83
2019-04-06T21:40:10.538Z,39.30
2019-04-06T21:42:39.726Z,40.90
2019-04-06T21:45:09.413Z,40.50
2019-04-06T21:47:38.747Z,39.00
2019-04-06T21:50:08.738Z,40.77
2019-04-06T21:52:38.982Z,40.63
2019-04-06T21:55:12.339Z,41.23
2019-04-06T21:57:41.945Z,39.87
2019-04-06T22:00:14.366Z,40.20
2019-04-06T22:02:43.722Z,40.67
2019-04-06T22:05:13.768Z,41.70
2019-04-06T22:07:49.824Z,41.77
2019-04-06T22:10:14.253Z,40.37
2019-04-06T22:12:44.206Z,40.87
2019-04-06T22:15:15.449Z,42.53
2019-04-06T22:17:44.736Z,43.13
2019-04-06T22:20:14.090Z,41.40
2019-04-06T22:22:43.335Z,43.67
2019-04-06T22:25:12.591Z,42.23
2019-04-06T22:27:41.759Z,43.07
2019-04-06T22:30:12.274Z,41.87
2019-04-06T22:32:41.586Z,40.63
2019-04-06T22:35:11.192Z,42.93
2019-04-06T22:37:40.640Z,43.07
2019-04-06T22:40:09.999Z,44.40
2019-04-06T22:42:39.837Z,42.93
2019-04-06T22:45:12.134Z,42.43
2019-04-06T22:47:41.562Z,43.63
2019-04-06T22:50:11.160Z,43.93
2019-04-06T22:52:41.213Z,44.97
2019-04-06T22:55:10.739Z,45.40
2019-04-06T22:57:40.818Z,44.60
2019-04-06T23:00:12.442Z,43.70
2019-04-06T23:02:55.474Z,43.73
2019-04-06T23:05:29.857Z,43.00
2019-04-06T23:07:59.846Z,43.73
2019-04-06T23:10:29.447Z,42.23
2019-04-06T23:12:59.595Z,41.40
2019-04-06T23:15:29.272Z,42.37
2019-04-06T23:17:59.096Z,43.33
2019-04-06T23:20:28.849Z,42.13
2019-04-06T23:22:58.393Z,44.03
2019-04-06T23:25:27.968Z,43.17
2019-04-06T23:27:58.294Z,44.23
2019-04-06T23:30:28.261Z,43.20
2019-04-06T23:32:58.241Z,42.70
2019-04-06T23:35:27.924Z,42.47
2019-04-06T23:37:57.318Z,42.73
2019-04-06T23:40:27.059Z,44.47
2019-04-06T23:42:56.607Z,46.67
2019-04-06T23:45:26.253Z,43.97
2019-04-06T23:47:55.861Z,44.83
2019-04-06T23:50:25.137Z,46.33
2019-04-06T23:52:54.384Z,44.70
2019-04-06T23:55:23.604Z,46.00
2019-04-06T23:57:53.328Z,47.10
